Moorabbin, Victoria

1:10 PM AEST on July 01, 2015 (GMT +1000)
Parkdale | | Change Station
CLOSE
Current Station
Personal Weather Station
Location: Parkdale, VIC
Elevation: 65 ft
Nearby Weather Stations

Elev 65 ft 37.99 °S, 145.08 °E | Updated 9 seconds ago

Scattered Clouds
Scattered Clouds
59.5 °F
Feels Like 59.5 °F
N
7.6
Wind Variable Wind from NNW
Gusts 15.2 mph

Today
High -- | Low -- °F
--% Chance of Precip.
Yesterday
High -- | Low -- °F
Precip. -- in
7:36 AM 5:10 PM
Waxing Gibbous, 99% visible
Pressure 30.24 in
Visibility 6.2 miles
Clouds Scattered Clouds 5100 ft
Dew Point 35 °F
Humidity 39%
Rainfall in
Snow Depth Not available.
UV 2 out of 12
Pollen Not available.
Air Quality Not available.
Flu Activity Not available.
METAR YMEN 010300Z AUTO 35011KT 9999 // SCT051 14/03 Q1024

More Conditions Fewer Conditions

Pressure 30.24 in
Visibility 6.2 miles
Clouds Scattered Clouds 5100 ft
Dew Point 35 °F
Humidity 39%
Rainfall in
Snow Depth Not available.
UV 2 out of 12
Pollen Not available.
Air Quality Not available.
Flu Activity Not available.
METAR YMEN 010300Z AUTO 35011KT 9999 // SCT051 14/03 Q1024

More Conditions Fewer Conditions

10-Day Weather Forecast

×

Almanac

Astronomy

Jul. 01, 2015 Rise Set
Actual Time
Civil Twilight
Nautical Twilight
Astronomical Twilight
Moon
Length of Visible Light
Length of Day
Tomorrow will be .
, % of the Moon is Illuminated

Today's Extremes

Country Highs Country Lows

Community

WunderPhotos

Upload Photos

1,834,122 photos uploaded!

WunderBlogs® & News

Nearby

Air Quality

  Air Quality AQ Index Pollutant
Not available.

Snow Depth

Station Depth Elevation

Earthquake Activity

City Distance Mag. Time & Date
Minimum magnitude displayed is 2.5.

Coastal Water Temperatures

Place Temperature

Stations

Nearby Weather Stations

Station Location Temp. Windchill Dew Point Humidity Wind Precip. Elev Updated Type